F/V Renaissance II — FMEW — position and weather

sailwx.info

Track history (hours):
 
Tides and Currents Weather Stations Pressure Air Temp Water Temp Dewpoint Dewpoint Depression Visibility Wind Speed Wind Dir Waves Ship Positions

F/V Renaissance II

Last reported at 2016-Sep-25 00:33 UTC. Time now 2016-Sep-25 05:26 UTC.
Position N 46°23' W 001°59'.

Length 18 m.

Type: Fishing. MMSI: 228216600.

Date/timePositionNaut miles runAvg speedWind from/ knotsBaromVisibWave heightAir tempDewpointWater temp
2016-Sep-25 00:33N 46°23' W 001°59'10 5.1
2016-Sep-24 22:33N 46°30' W 001°47'0 0.2
2016-Sep-24 21:33N 46°30' W 001°47'12 5.8
2016-Sep-24 19:33N 46°23' W 002°00'10 9.6
2016-Sep-24 18:32N 46°17' W 002°12'3 2.4
2016-Sep-24 17:09N 46°15' W 002°15'13 2.6
2016-Sep-24 12:15N 46°21' W 002°31'3 1.1
2016-Sep-24 09:21N 46°18' W 002°33'6 1.0
2016-Sep-24 03:06N 46°20' W 002°42'2 3.5
2016-Sep-24 02:33N 46°22' W 002°40'4 2.6
2016-Sep-24 01:05N 46°18' W 002°40'1 1.3
2016-Sep-24 00:20N 46°19' W 002°42'23 4.8
2016-Sep-23 19:33N 46°41' W 002°36'10 4.3
2016-Sep-23 17:15N 46°43' W 002°50'2 3.4
2016-Sep-23 16:33N 46°44' W 002°53'37 1.9
2016-Sep-22 20:33N 46°32' W 002°02'49 1.7
2016-Sep-21 16:33N 46°59' W 003°01'2 0.3
2016-Sep-21 09:33N 46°60' W 003°04'0 0.5
2016-Sep-21 08:33N 47°00' W 003°03'1 0.3
2016-Sep-21 05:33N 47°01' W 003°02'82 6.9
2016-Sep-20 17:33N 46°03' W 001°36'4 0.9
2016-Sep-20 13:26N 46°05' W 001°41'2 0.3
2016-Sep-20 08:33N 46°05' W 001°39'26 1.8
2016-Sep-19 18:34N 46°30' W 001°47'8 4.1
2016-Sep-19 16:33N 46°26' W 001°58'8 0.2
2016-Sep-18 02:34N 46°30' W 001°47'0 0.0
2016-Sep-18 01:34N 46°30' W 001°47'0 0.0
2016-Sep-18 00:33N 46°30' W 001°47'0 0.0
2016-Sep-17 22:33N 46°30' W 001°47'0 0.0
2016-Sep-17 21:33N 46°30' W 001°47'0 0.0
2016-Sep-17 20:33N 46°30' W 001°47'0 0.0
2016-Sep-17 19:16N 46°30' W 001°47'0 0.0
2016-Sep-17 13:34N 46°30' W 001°47'0 0.0
2016-Sep-17 12:33N 46°30' W 001°47'0 0.0
2016-Sep-17 10:33N 46°30' W 001°47'0 0.0
2016-Sep-17 09:34N 46°30' W 001°47'0 0.0
2016-Sep-17 08:33N 46°30' W 001°47'0 0.0
2016-Sep-17 07:33N 46°30' W 001°47'0 0.0
2016-Sep-17 05:34N 46°30' W 001°47'0 0.0
2016-Sep-17 04:33N 46°30' W 001°47'0 0.0
2016-Sep-17 00:34N 46°30' W 001°47'0 0.0
2016-Sep-16 17:33N 46°30' W 001°47'0 0.0
2016-Sep-16 15:33N 46°30' W 001°47'0 0.0
2016-Sep-16 12:33N 46°30' W 001°47'0 0.0
2016-Sep-16 09:33N 46°30' W 001°47'0 0.0
2016-Sep-16 07:34N 46°30' W 001°47'0 0.0
2016-Sep-16 03:34N 46°30' W 001°48'0 0.0
2016-Sep-16 02:33N 46°30' W 001°48'0 0.0
2016-Sep-16 00:34N 46°30' W 001°48'0 0.0
2016-Sep-15 22:33N 46°30' W 001°48'0 0.0
2016-Sep-15 21:34N 46°30' W 001°48'0 0.0
2016-Sep-15 20:33N 46°30' W 001°48'0 0.0
2016-Sep-15 18:33N 46°30' W 001°48'0 0.0
2016-Sep-15 12:33N 46°30' W 001°48'2 2.2
2016-Sep-15 11:34N 46°28' W 001°47'12 1.7
2016-Sep-15 04:33N 46°16' W 001°44'2 2.1
2016-Sep-15 03:34N 46°16' W 001°41'2 1.0
2016-Sep-15 01:34N 46°16' W 001°44'  
Track history (hours):
 
Tides and Currents Weather Stations Pressure Air Temp Water Temp Dewpoint Dewpoint Depression Visibility Wind Speed Wind Dir Waves Ship Positions

F/V Renaissance II

Last reported at 2016-Sep-25 00:33 UTC. Time now 2016-Sep-25 05:26 UTC.
Position N 46°23' W 001°59'.

Length 18 m.

Type: Fishing. MMSI: 228216600.

Date/timePositionNaut miles runAvg speedWind from/ knotsBaromVisibWave heightAir tempDewpointWater temp
2016-Sep-25 00:33N 46°23' W 001°59'10 5.1
2016-Sep-24 22:33N 46°30' W 001°47'0 0.2
2016-Sep-24 21:33N 46°30' W 001°47'12 5.8
2016-Sep-24 19:33N 46°23' W 002°00'10 9.6
2016-Sep-24 18:32N 46°17' W 002°12'3 2.4
2016-Sep-24 17:09N 46°15' W 002°15'13 2.6
2016-Sep-24 12:15N 46°21' W 002°31'3 1.1
2016-Sep-24 09:21N 46°18' W 002°33'6 1.0
2016-Sep-24 03:06N 46°20' W 002°42'2 3.5
2016-Sep-24 02:33N 46°22' W 002°40'4 2.6
2016-Sep-24 01:05N 46°18' W 002°40'1 1.3
2016-Sep-24 00:20N 46°19' W 002°42'23 4.8
2016-Sep-23 19:33N 46°41' W 002°36'10 4.3
2016-Sep-23 17:15N 46°43' W 002°50'2 3.4
2016-Sep-23 16:33N 46°44' W 002°53'37 1.9
2016-Sep-22 20:33N 46°32' W 002°02'49 1.7
2016-Sep-21 16:33N 46°59' W 003°01'2 0.3
2016-Sep-21 09:33N 46°60' W 003°04'0 0.5
2016-Sep-21 08:33N 47°00' W 003°03'1 0.3
2016-Sep-21 05:33N 47°01' W 003°02'82 6.9
2016-Sep-20 17:33N 46°03' W 001°36'4 0.9
2016-Sep-20 13:26N 46°05' W 001°41'2 0.3
2016-Sep-20 08:33N 46°05' W 001°39'26 1.8
2016-Sep-19 18:34N 46°30' W 001°47'8 4.1
2016-Sep-19 16:33N 46°26' W 001°58'8 0.2
2016-Sep-18 02:34N 46°30' W 001°47'0 0.0
2016-Sep-18 01:34N 46°30' W 001°47'0 0.0
2016-Sep-18 00:33N 46°30' W 001°47'0 0.0
2016-Sep-17 22:33N 46°30' W 001°47'0 0.0
2016-Sep-17 21:33N 46°30' W 001°47'0 0.0
2016-Sep-17 20:33N 46°30' W 001°47'0 0.0
2016-Sep-17 19:16N 46°30' W 001°47'0 0.0
2016-Sep-17 13:34N 46°30' W 001°47'0 0.0
2016-Sep-17 12:33N 46°30' W 001°47'0 0.0
2016-Sep-17 10:33N 46°30' W 001°47'0 0.0
2016-Sep-17 09:34N 46°30' W 001°47'0 0.0
2016-Sep-17 08:33N 46°30' W 001°47'0 0.0
2016-Sep-17 07:33N 46°30' W 001°47'0 0.0
2016-Sep-17 05:34N 46°30' W 001°47'0 0.0
2016-Sep-17 04:33N 46°30' W 001°47'0 0.0
2016-Sep-17 00:34N 46°30' W 001°47'0 0.0
2016-Sep-16 17:33N 46°30' W 001°47'0 0.0
2016-Sep-16 15:33N 46°30' W 001°47'0 0.0
2016-Sep-16 12:33N 46°30' W 001°47'0 0.0
2016-Sep-16 09:33N 46°30' W 001°47'0 0.0
2016-Sep-16 07:34N 46°30' W 001°47'0 0.0
2016-Sep-16 03:34N 46°30' W 001°48'0 0.0
2016-Sep-16 02:33N 46°30' W 001°48'0 0.0
2016-Sep-16 00:34N 46°30' W 001°48'0 0.0
2016-Sep-15 22:33N 46°30' W 001°48'0 0.0
2016-Sep-15 21:34N 46°30' W 001°48'0 0.0
2016-Sep-15 20:33N 46°30' W 001°48'0 0.0
2016-Sep-15 18:33N 46°30' W 001°48'0 0.0
2016-Sep-15 12:33N 46°30' W 001°48'2 2.2
2016-Sep-15 11:34N 46°28' W 001°47'12 1.7
2016-Sep-15 04:33N 46°16' W 001°44'2 2.1
2016-Sep-15 03:34N 46°16' W 001°41'2 1.0
2016-Sep-15 01:34N 46°16' W 001°44'  

Dump ship's entire track history